sensor_id;sensor_type;location;lat;lon;timestamp;pressure;altitude;pressure_sealevel;temperature;humidity
19795;BME280;10057;59.402;17.866;2024-03-02T00:00:55;101345.59;;;5.16;80.23
19795;BME280;10057;59.402;17.866;2024-03-02T00:03:22;101339.41;;;5.16;79.71
19795;BME280;10057;59.402;17.866;2024-03-02T00:05:50;101345.59;;;5.16;79.80
19795;BME280;10057;59.402;17.866;2024-03-02T00:08:25;101349.94;;;5.19;79.89
19795;BME280;10057;59.402;17.866;2024-03-02T00:10:57;101353.44;;;5.19;80.26
19795;BME280;10057;59.402;17.866;2024-03-02T00:13:24;101356.09;;;5.18;79.95
19795;BME280;10057;59.402;17.866;2024-03-02T00:15:55;101342.03;;;5.19;79.93
19795;BME280;10057;59.402;17.866;2024-03-02T00:18:26;101344.66;;;5.23;79.69
19795;BME280;10057;59.402;17.866;2024-03-02T00:20:54;101344.69;;;5.20;79.73
19795;BME280;10057;59.402;17.866;2024-03-02T00:23:23;101342.91;;;5.22;80.34
19795;BME280;10057;59.402;17.866;2024-03-02T00:25:53;101345.50;;;5.26;79.63
19795;BME280;10057;59.402;17.866;2024-03-02T00:28:24;101337.63;;;5.26;79.96
19795;BME280;10057;59.402;17.866;2024-03-02T00:30:58;101342.00;;;5.28;79.92
19795;BME280;10057;59.402;17.866;2024-03-02T00:33:35;101335.00;;;5.27;79.78
19795;BME280;10057;59.402;17.866;2024-03-02T00:36:03;101346.38;;;5.31;80.14
19795;BME280;10057;59.402;17.866;2024-03-02T00:38:31;101348.13;;;5.30;80.27
19795;BME280;10057;59.402;17.866;2024-03-02T00:41:05;101346.34;;;5.32;79.74
19795;BME280;10057;59.402;17.866;2024-03-02T00:43:47;101339.34;;;5.33;80.25
19795;BME280;10057;59.402;17.866;2024-03-02T00:46:18;101338.47;;;5.31;79.73
19795;BME280;10057;59.402;17.866;2024-03-02T00:51:39;101356.00;;;5.35;79.86
19795;BME280;10057;59.402;17.866;2024-03-02T00:54:09;101343.72;;;5.34;80.34
19795;BME280;10057;59.402;17.866;2024-03-02T00:56:37;101332.34;;;5.32;79.91
19795;BME280;10057;59.402;17.866;2024-03-02T00:59:03;101339.31;;;5.36;79.92
19795;BME280;10057;59.402;17.866;2024-03-02T01:01:30;101348.97;;;5.38;79.89
19795;BME280;10057;59.402;17.866;2024-03-02T01:03:57;101348.97;;;5.38;79.92
19795;BME280;10057;59.402;17.866;2024-03-02T01:06:23;101343.66;;;5.40;80.24
19795;BME280;10057;59.402;17.866;2024-03-02T01:08:50;101341.03;;;5.43;79.93
19795;BME280;10057;59.402;17.866;2024-03-02T01:11:19;101345.41;;;5.42;80.10
19795;BME280;10057;59.402;17.866;2024-03-02T01:13:49;101342.78;;;5.42;79.93
19795;BME280;10057;59.402;17.866;2024-03-02T01:16:16;101346.28;;;5.43;79.85
19795;BME280;10057;59.402;17.866;2024-03-02T01:18:43;101347.16;;;5.43;79.90
19795;BME280;10057;59.402;17.866;2024-03-02T01:21:10;101341.91;;;5.45;80.15
19795;BME280;10057;59.402;17.866;2024-03-02T01:23:37;101349.78;;;5.48;80.13
19795;BME280;10057;59.402;17.866;2024-03-02T01:26:04;101348.91;;;5.47;80.41
19795;BME280;10057;59.402;17.866;2024-03-02T01:28:31;101345.41;;;5.47;79.94
19795;BME280;10057;59.402;17.866;2024-03-02T01:30:57;101342.75;;;5.49;79.98
19795;BME280;10057;59.402;17.866;2024-03-02T01:33:24;101353.25;;;5.50;80.35
19795;BME280;10057;59.402;17.866;2024-03-02T01:35:51;101346.25;;;5.49;80.29
19795;BME280;10057;59.402;17.866;2024-03-02T01:38:17;101352.38;;;5.53;80.61
19795;BME280;10057;59.402;17.866;2024-03-02T01:40:44;101354.13;;;5.52;80.27
19795;BME280;10057;59.402;17.866;2024-03-02T01:43:11;101351.47;;;5.54;80.04
19795;BME280;10057;59.402;17.866;2024-03-02T01:45:38;101333.94;;;5.53;80.11
19795;BME280;10057;59.402;17.866;2024-03-02T01:48:06;101353.22;;;5.56;80.20
19795;BME280;10057;59.402;17.866;2024-03-02T01:50:34;101347.97;;;5.55;79.85
19795;BME280;10057;59.402;17.866;2024-03-02T01:53:01;101344.44;;;5.56;79.96
19795;BME280;10057;59.402;17.866;2024-03-02T01:55:31;101344.44;;;5.56;80.30
19795;BME280;10057;59.402;17.866;2024-03-02T01:57:59;101342.69;;;5.56;80.70
19795;BME280;10057;59.402;17.866;2024-03-02T02:00:26;101348.81;;;5.60;80.27
19795;BME280;10057;59.402;17.866;2024-03-02T02:02:54;101355.84;;;5.59;80.44
19795;BME280;10057;59.402;17.866;2024-03-02T02:05:21;101363.72;;;5.59;80.28
19795;BME280;10057;59.402;17.866;2024-03-02T02:07:48;101370.72;;;5.63;80.34
19795;BME280;10057;59.402;17.866;2024-03-02T02:10:15;101365.44;;;5.63;80.25
19795;BME280;10057;59.402;17.866;2024-03-02T02:12:41;101363.69;;;5.64;80.30
19795;BME280;10057;59.402;17.866;2024-03-02T02:17:48;101361.97;;;5.61;80.59
19795;BME280;10057;59.402;17.866;2024-03-02T02:20:14;101384.75;;;5.65;80.17
19795;BME280;10057;59.402;17.866;2024-03-02T02:23:04;101375.13;;;5.64;80.43
19795;BME280;10057;59.402;17.866;2024-03-02T02:25:32;101373.34;;;5.65;80.05
19795;BME280;10057;59.402;17.866;2024-03-02T02:27:58;101378.63;;;5.63;80.30
19795;BME280;10057;59.402;17.866;2024-03-02T02:30:30;101373.34;;;5.65;80.35
19795;BME280;10057;59.402;17.866;2024-03-02T02:32:58;101376.84;;;5.67;80.32
19795;BME280;10057;59.402;17.866;2024-03-02T02:35:25;101376.00;;;5.65;80.39
19795;BME280;10057;59.402;17.866;2024-03-02T02:37:53;101375.06;;;5.67;80.53
19795;BME280;10057;59.402;17.866;2024-03-02T02:40:21;101367.19;;;5.66;80.44
19795;BME280;10057;59.402;17.866;2024-03-02T02:42:48;101365.44;;;5.68;80.21
19795;BME280;10057;59.402;17.866;2024-03-02T02:45:15;101363.69;;;5.65;80.57
19795;BME280;10057;59.402;17.866;2024-03-02T02:47:43;101361.91;;;5.67;80.45
19795;BME280;10057;59.402;17.866;2024-03-02T02:50:11;101364.56;;;5.66;80.53
19795;BME280;10057;59.402;17.866;2024-03-02T02:52:40;101374.22;;;5.68;80.13
19795;BME280;10057;59.402;17.866;2024-03-02T02:55:09;101382.09;;;5.67;80.14
19795;BME280;10057;59.402;17.866;2024-03-02T02:57:36;101379.44;;;5.70;80.09
19795;BME280;10057;59.402;17.866;2024-03-02T03:02:42;101382.06;;;5.70;80.73
19795;BME280;10057;59.402;17.866;2024-03-02T03:05:10;101376.84;;;5.67;80.76
19795;BME280;10057;59.402;17.866;2024-03-02T03:07:37;101390.88;;;5.69;80.26
19795;BME280;10057;59.402;17.866;2024-03-02T03:10:06;101387.34;;;5.70;80.26
19795;BME280;10057;59.402;17.866;2024-03-02T03:12:34;101378.59;;;5.68;80.49
19795;BME280;10057;59.402;17.866;2024-03-02T03:15:03;101380.34;;;5.67;80.28
19795;BME280;10057;59.402;17.866;2024-03-02T03:17:31;101389.09;;;5.69;80.36
19795;BME280;10057;59.402;17.866;2024-03-02T03:19:57;101383.88;;;5.68;79.90
19795;BME280;10057;59.402;17.866;2024-03-02T03:22:24;101373.34;;;5.66;80.20
19795;BME280;10057;59.402;17.866;2024-03-02T03:24:51;101379.50;;;5.65;80.22
19795;BME280;10057;59.402;17.866;2024-03-02T03:27:18;101374.19;;;5.67;80.11
19795;BME280;10057;59.402;17.866;2024-03-02T03:29:46;101372.44;;;5.67;80.28
19795;BME280;10057;59.402;17.866;2024-03-02T03:32:13;101369.84;;;5.64;80.18
19795;BME280;10057;59.402;17.866;2024-03-02T03:34:40;101371.56;;;5.67;80.50
19795;BME280;10057;59.402;17.866;2024-03-02T03:37:07;101376.81;;;5.70;80.22
19795;BME280;10057;59.402;17.866;2024-03-02T03:39:34;101369.78;;;5.70;80.43
19795;BME280;10057;59.402;17.866;2024-03-02T03:42:02;101371.56;;;5.67;80.31
19795;BME280;10057;59.402;17.866;2024-03-02T03:44:29;101368.06;;;5.66;80.51
19795;BME280;10057;59.402;17.866;2024-03-02T03:46:56;101378.56;;;5.69;80.04
19795;BME280;10057;59.402;17.866;2024-03-02T03:49:22;101382.97;;;5.67;80.24
19795;BME280;10057;59.402;17.866;2024-03-02T03:51:49;101377.75;;;5.64;80.22
19795;BME280;10057;59.402;17.866;2024-03-02T03:54:16;101380.34;;;5.66;80.61
19795;BME280;10057;59.402;17.866;2024-03-02T03:56:43;101376.84;;;5.64;80.44
19795;BME280;10057;59.402;17.866;2024-03-02T03:59:09;101378.63;;;5.63;80.31
19795;BME280;10057;59.402;17.866;2024-03-02T04:01:37;101382.13;;;5.65;80.25
19795;BME280;10057;59.402;17.866;2024-03-02T04:04:04;101373.34;;;5.65;80.13
19795;BME280;10057;59.402;17.866;2024-03-02T04:06:30;101371.59;;;5.62;80.09
19795;BME280;10057;59.402;17.866;2024-03-02T04:08:57;101376.88;;;5.59;79.99
19795;BME280;10057;59.402;17.866;2024-03-02T04:11:24;101385.66;;;5.63;80.65
19795;BME280;10057;59.402;17.866;2024-03-02T04:13:51;101379.53;;;5.59;80.29
19795;BME280;10057;59.402;17.866;2024-03-02T04:16:19;101383.06;;;5.58;80.12
19795;BME280;10057;59.402;17.866;2024-03-02T04:18:46;101390.06;;;5.59;80.29
19795;BME280;10057;59.402;17.866;2024-03-02T04:21:12;101382.16;;;5.59;80.02
19795;BME280;10057;59.402;17.866;2024-03-02T04:23:39;101379.56;;;5.53;80.51
19795;BME280;10057;59.402;17.866;2024-03-02T04:26:06;101393.59;;;5.55;80.16
19795;BME280;10057;59.402;17.866;2024-03-02T04:28:32;101399.75;;;5.57;80.52
19795;BME280;10057;59.402;17.866;2024-03-02T04:30:59;101391.84;;;5.56;80.60
19795;BME280;10057;59.402;17.866;2024-03-02T04:33:26;101402.38;;;5.54;80.23
19795;BME280;10057;59.402;17.866;2024-03-02T04:35:53;101389.25;;;5.51;80.25
19795;BME280;10057;59.402;17.866;2024-03-02T04:38:19;101396.25;;;5.52;80.35
19795;BME280;10057;59.402;17.866;2024-03-02T04:40:47;101397.16;;;5.48;80.04
19795;BME280;10057;59.402;17.866;2024-03-02T04:43:14;101397.16;;;5.48;80.40
19795;BME280;10057;59.402;17.866;2024-03-02T04:45:42;101393.63;;;5.46;80.02
19795;BME280;10057;59.402;17.866;2024-03-02T04:48:09;101391.91;;;5.45;80.41
19795;BME280;10057;59.402;17.866;2024-03-02T04:50:36;101390.19;;;5.41;80.38
19795;BME280;10057;59.402;17.866;2024-03-02T04:53:03;101391.94;;;5.39;80.46
19795;BME280;10057;59.402;17.866;2024-03-02T04:55:29;101388.44;;;5.37;80.45
19795;BME280;10057;59.402;17.866;2024-03-02T04:58:07;101402.44;;;5.39;80.49
19795;BME280;10057;59.402;17.866;2024-03-02T05:00:35;101394.59;;;5.33;80.46
19795;BME280;10057;59.402;17.866;2024-03-02T05:03:02;101404.25;;;5.34;80.74
19795;BME280;10057;59.402;17.866;2024-03-02T05:05:29;101395.47;;;5.32;80.16
19795;BME280;10057;59.402;17.866;2024-03-02T05:07:56;101410.38;;;5.33;80.68
19795;BME280;10057;59.402;17.866;2024-03-02T05:10:23;101413.00;;;5.33;80.55
19795;BME280;10057;59.402;17.866;2024-03-02T05:12:50;101410.41;;;5.31;80.26
19795;BME280;10057;59.402;17.866;2024-03-02T05:15:24;101412.16;;;5.31;80.19
19795;BME280;10057;59.402;17.866;2024-03-02T05:17:51;101413.91;;;5.32;80.25
19795;BME280;10057;59.402;17.866;2024-03-02T05:20:18;101417.41;;;5.29;79.91
19795;BME280;10057;59.402;17.866;2024-03-02T05:22:44;101418.28;;;5.30;80.35
19795;BME280;10057;59.402;17.866;2024-03-02T05:25:11;101428.81;;;5.31;80.40
19795;BME280;10057;59.402;17.866;2024-03-02T05:27:38;101421.81;;;5.29;80.48
19795;BME280;10057;59.402;17.866;2024-03-02T05:30:05;101421.81;;;5.30;80.48
19795;BME280;10057;59.402;17.866;2024-03-02T05:32:36;101417.41;;;5.29;80.19
19795;BME280;10057;59.402;17.866;2024-03-02T05:35:03;101427.94;;;5.29;80.50
19795;BME280;10057;59.402;17.866;2024-03-02T05:37:29;101423.59;;;5.23;80.16
19795;BME280;10057;59.402;17.866;2024-03-02T05:39:56;101433.22;;;5.28;80.40
19795;BME280;10057;59.402;17.866;2024-03-02T05:42:23;101423.59;;;5.27;80.47
19795;BME280;10057;59.402;17.866;2024-03-02T05:44:50;101429.72;;;5.26;80.12
19795;BME280;10057;59.402;17.866;2024-03-02T05:47:17;101420.06;;;5.25;80.18
19795;BME280;10057;59.402;17.866;2024-03-02T05:49:43;101426.19;;;5.25;80.13
19795;BME280;10057;59.402;17.866;2024-03-02T05:52:10;101427.06;;;5.26;80.50
19795;BME280;10057;59.402;17.866;2024-03-02T05:54:38;101424.44;;;5.22;79.79
19795;BME280;10057;59.402;17.866;2024-03-02T05:57:05;101426.22;;;5.22;80.13
19795;BME280;10057;59.402;17.866;2024-03-02T05:59:58;101429.72;;;5.22;80.43
19795;BME280;10057;59.402;17.866;2024-03-02T06:02:25;101432.34;;;5.19;80.24
19795;BME280;10057;59.402;17.866;2024-03-02T06:04:54;101427.09;;;5.19;79.88
19795;BME280;10057;59.402;17.866;2024-03-02T06:07:21;101422.72;;;5.18;80.32
19795;BME280;10057;59.402;17.866;2024-03-02T06:09:48;101433.25;;;5.20;80.37
19795;BME280;10057;59.402;17.866;2024-03-02T06:12:17;101427.13;;;5.16;80.22
19795;BME280;10057;59.402;17.866;2024-03-02T06:14:44;101434.09;;;5.22;80.11
19795;BME280;10057;59.402;17.866;2024-03-02T06:17:10;101420.97;;;5.16;79.87
19795;BME280;10057;59.402;17.866;2024-03-02T06:19:37;101447.28;;;5.23;80.55
19795;BME280;10057;59.402;17.866;2024-03-02T06:22:04;101432.34;;;5.22;80.16
19795;BME280;10057;59.402;17.866;2024-03-02T06:24:30;101445.50;;;5.26;80.10
19795;BME280;10057;59.402;17.866;2024-03-02T06:26:57;101442.84;;;5.29;80.20
19795;BME280;10057;59.402;17.866;2024-03-02T06:29:24;101434.94;;;5.32;80.27
19795;BME280;10057;59.402;17.866;2024-03-02T06:31:50;101437.59;;;5.29;80.38
19795;BME280;10057;59.402;17.866;2024-03-02T06:34:20;101435.84;;;5.31;80.15
19795;BME280;10057;59.402;17.866;2024-03-02T06:36:47;101448.97;;;5.35;80.12
19795;BME280;10057;59.402;17.866;2024-03-02T06:39:14;101443.72;;;5.34;80.29
19795;BME280;10057;59.402;17.866;2024-03-02T06:41:41;101459.50;;;5.32;79.91
19795;BME280;10057;59.402;17.866;2024-03-02T06:44:09;101469.13;;;5.38;80.16
19795;BME280;10057;59.402;17.866;2024-03-02T06:46:35;101465.59;;;5.39;80.37
19795;BME280;10057;59.402;17.866;2024-03-02T06:49:02;101474.38;;;5.41;79.87
19795;BME280;10057;59.402;17.866;2024-03-02T06:51:30;101473.53;;;5.40;79.83
19795;BME280;10057;59.402;17.866;2024-03-02T06:53:57;101471.75;;;5.41;79.80
19795;BME280;10057;59.402;17.866;2024-03-02T06:56:24;101467.34;;;5.43;80.25
19795;BME280;10057;59.402;17.866;2024-03-02T06:58:50;101479.59;;;5.49;80.11
19795;BME280;10057;59.402;17.866;2024-03-02T07:01:17;101472.59;;;5.49;79.94
19795;BME280;10057;59.402;17.866;2024-03-02T07:03:44;101484.84;;;5.50;80.01
19795;BME280;10057;59.402;17.866;2024-03-02T07:06:11;101477.81;;;5.55;79.76
19795;BME280;10057;59.402;17.866;2024-03-02T07:08:37;101469.03;;;5.56;80.03
19795;BME280;10057;59.402;17.866;2024-03-02T07:11:04;101481.31;;;5.59;80.15
19795;BME280;10057;59.402;17.866;2024-03-02T07:13:31;101486.56;;;5.60;80.16
19795;BME280;10057;59.402;17.866;2024-03-02T07:15:57;101483.94;;;5.62;79.88
19795;BME280;10057;59.402;17.866;2024-03-02T07:18:30;101485.63;;;5.67;80.12
19795;BME280;10057;59.402;17.866;2024-03-02T07:20:57;101488.28;;;5.67;80.01
19795;BME280;10057;59.402;17.866;2024-03-02T07:23:26;101490.03;;;5.68;80.14
19795;BME280;10057;59.402;17.866;2024-03-02T07:25:54;101491.78;;;5.69;79.81
19795;BME280;10057;59.402;17.866;2024-03-02T07:28:26;101492.66;;;5.72;79.82
19795;BME280;10057;59.402;17.866;2024-03-02T07:31:04;101503.13;;;5.78;79.66
19795;BME280;10057;59.402;17.866;2024-03-02T07:33:31;101495.25;;;5.79;79.52
19795;BME280;10057;59.402;17.866;2024-03-02T07:35:59;101499.63;;;5.82;79.66
19795;BME280;10057;59.402;17.866;2024-03-02T07:38:30;101500.50;;;5.85;79.55
19795;BME280;10057;59.402;17.866;2024-03-02T07:40:58;101493.47;;;5.86;79.99
19795;BME280;10057;59.402;17.866;2024-03-02T07:43:25;101492.56;;;5.91;79.69
19795;BME280;10057;59.402;17.866;2024-03-02T07:45:51;101486.38;;;5.91;79.69
19795;BME280;10057;59.402;17.866;2024-03-02T07:48:19;101481.13;;;5.97;79.84
19795;BME280;10057;59.402;17.866;2024-03-02T07:50:46;101492.50;;;6.04;79.44
19795;BME280;10057;59.402;17.866;2024-03-02T07:53:12;101501.25;;;6.10;79.38
19795;BME280;10057;59.402;17.866;2024-03-02T07:55:40;101498.56;;;6.15;79.41
19795;BME280;10057;59.402;17.866;2024-03-02T07:58:07;101493.28;;;6.20;79.43
19795;BME280;10057;59.402;17.866;2024-03-02T08:00:34;101499.41;;;6.22;79.19
19795;BME280;10057;59.402;17.866;2024-03-02T08:03:01;101492.38;;;6.24;79.13
19795;BME280;10057;59.402;17.866;2024-03-02T08:05:28;101502.84;;;6.31;79.62
19795;BME280;10057;59.402;17.866;2024-03-02T08:07:55;101502.81;;;6.34;79.69
19795;BME280;10057;59.402;17.866;2024-03-02T08:10:22;101505.44;;;6.37;79.39
19795;BME280;10057;59.402;17.866;2024-03-02T08:12:48;101498.34;;;6.44;79.16
19795;BME280;10057;59.402;17.866;2024-03-02T08:15:15;101515.88;;;6.51;78.95
19795;BME280;10057;59.402;17.866;2024-03-02T08:17:42;101515.81;;;6.56;79.32
19795;BME280;10057;59.402;17.866;2024-03-02T08:20:15;101505.28;;;6.57;79.15
19795;BME280;10057;59.402;17.866;2024-03-02T08:22:42;101521.91;;;6.67;79.11
19795;BME280;10057;59.402;17.866;2024-03-02T08:25:09;101513.06;;;6.70;79.57
19795;BME280;10057;59.402;17.866;2024-03-02T08:27:36;101514.75;;;6.77;78.81
19795;BME280;10057;59.402;17.866;2024-03-02T08:30:03;101515.59;;;6.82;78.88
19795;BME280;10057;59.402;17.866;2024-03-02T08:32:33;101513.84;;;6.84;79.08
19795;BME280;10057;59.402;17.866;2024-03-02T08:35:00;101515.50;;;6.94;78.94
19795;BME280;10057;59.402;17.866;2024-03-02T08:37:27;101510.22;;;6.94;78.76
19795;BME280;10057;59.402;17.866;2024-03-02T08:39:54;101511.97;;;6.95;78.76
19795;BME280;10057;59.402;17.866;2024-03-02T08:42:21;101510.22;;;6.94;78.41
19795;BME280;10057;59.402;17.866;2024-03-02T08:44:48;101518.06;;;7.02;78.51
19795;BME280;10057;59.402;17.866;2024-03-02T08:47:15;101505.72;;;7.02;78.57
19795;BME280;10057;59.402;17.866;2024-03-02T08:49:42;101497.78;;;7.05;78.73
19795;BME280;10057;59.402;17.866;2024-03-02T08:52:09;101496.88;;;7.08;78.52
19795;BME280;10057;59.402;17.866;2024-03-02T08:54:35;101516.19;;;7.10;78.60
19795;BME280;10057;59.402;17.866;2024-03-02T08:57:02;101517.03;;;7.13;78.45
19795;BME280;10057;59.402;17.866;2024-03-02T08:59:29;101524.03;;;7.18;78.54
19795;BME280;10057;59.402;17.866;2024-03-02T09:01:57;101522.22;;;7.21;78.77
19795;BME280;10057;59.402;17.866;2024-03-02T09:04:24;101523.03;;;7.29;78.24
19795;BME280;10057;59.402;17.866;2024-03-02T09:06:53;101519.53;;;7.29;78.17
19795;BME280;10057;59.402;17.866;2024-03-02T09:09:20;101529.13;;;7.36;78.46
19795;BME280;10057;59.402;17.866;2024-03-02T09:11:47;101521.19;;;7.36;78.03
19795;BME280;10057;59.402;17.866;2024-03-02T09:14:14;101528.22;;;7.39;78.14
19795;BME280;10057;59.402;17.866;2024-03-02T09:16:42;101521.06;;;7.45;78.06
19795;BME280;10057;59.402;17.866;2024-03-02T09:19:09;101521.06;;;7.47;77.96
19795;BME280;10057;59.402;17.866;2024-03-02T09:21:37;101537.75;;;7.50;77.93
19795;BME280;10057;59.402;17.866;2024-03-02T09:24:04;101536.78;;;7.57;77.85
19795;BME280;10057;59.402;17.866;2024-03-02T09:26:33;101528.78;;;7.62;77.98
19795;BME280;10057;59.402;17.866;2024-03-02T09:29:00;101530.50;;;7.68;77.63
19795;BME280;10057;59.402;17.866;2024-03-02T09:31:26;101526.91;;;7.72;77.61
19795;BME280;10057;59.402;17.866;2024-03-02T09:33:53;101535.69;;;7.72;77.04
19795;BME280;10057;59.402;17.866;2024-03-02T09:36:21;101525.97;;;7.76;77.37
19795;BME280;10057;59.402;17.866;2024-03-02T09:38:48;101517.22;;;7.74;77.21
19795;BME280;10057;59.402;17.866;2024-03-02T09:41:15;101522.50;;;7.72;77.28
19795;BME280;10057;59.402;17.866;2024-03-02T09:43:43;101524.25;;;7.72;77.44
19795;BME280;10057;59.402;17.866;2024-03-02T09:46:10;101517.28;;;7.69;76.88
19795;BME280;10057;59.402;17.866;2024-03-02T09:48:37;101522.53;;;7.71;77.38
19795;BME280;10057;59.402;17.866;2024-03-02T09:51:05;101531.31;;;7.71;76.92
19795;BME280;10057;59.402;17.866;2024-03-02T09:53:33;101527.84;;;7.68;77.01
19795;BME280;10057;59.402;17.866;2024-03-02T09:56:00;101524.41;;;7.63;76.83
19795;BME280;10057;59.402;17.866;2024-03-02T09:58:27;101526.16;;;7.64;77.33
19795;BME280;10057;59.402;17.866;2024-03-02T10:00:54;101527.06;;;7.61;77.03
19795;BME280;10057;59.402;17.866;2024-03-02T10:03:22;101527.97;;;7.58;77.10
19795;BME280;10057;59.402;17.866;2024-03-02T10:05:51;101532.41;;;7.56;76.69
19795;BME280;10057;59.402;17.866;2024-03-02T10:08:18;101537.69;;;7.56;76.68
19795;BME280;10057;59.402;17.866;2024-03-02T10:10:45;101532.47;;;7.50;76.82
19795;BME280;10057;59.402;17.866;2024-03-02T10:13:13;101540.34;;;7.53;76.73
19795;BME280;10057;59.402;17.866;2024-03-02T10:15:41;101545.59;;;7.55;76.85
19795;BME280;10057;59.402;17.866;2024-03-02T10:18:09;101536.84;;;7.53;76.65
19795;BME280;10057;59.402;17.866;2024-03-02T10:20:38;101534.16;;;7.54;76.75
19795;BME280;10057;59.402;17.866;2024-03-02T10:25:38;101528.88;;;7.54;76.78
19795;BME280;10057;59.402;17.866;2024-03-02T10:28:19;101525.38;;;7.54;76.66
19795;BME280;10057;59.402;17.866;2024-03-02T10:30:47;101526.25;;;7.54;76.67
19795;BME280;10057;59.402;17.866;2024-03-02T10:33:17;101526.25;;;7.54;76.46
19795;BME280;10057;59.402;17.866;2024-03-02T10:35:43;101518.34;;;7.53;76.79
19795;BME280;10057;59.402;17.866;2024-03-02T10:38:11;101525.41;;;7.52;76.39
19795;BME280;10057;59.402;17.866;2024-03-02T10:40:38;101528.97;;;7.48;76.20
19795;BME280;10057;59.402;17.866;2024-03-02T10:43:05;101519.38;;;7.43;76.15
19795;BME280;10057;59.402;17.866;2024-03-02T10:45:32;101533.41;;;7.46;76.18
19795;BME280;10057;59.402;17.866;2024-03-02T10:48:01;101526.41;;;7.42;76.14
19795;BME280;10057;59.402;17.866;2024-03-02T10:50:29;101529.00;;;7.45;76.08
19795;BME280;10057;59.402;17.866;2024-03-02T10:52:57;101517.66;;;7.39;76.01
19795;BME280;10057;59.402;17.866;2024-03-02T10:55:23;101523.78;;;7.41;76.21
19795;BME280;10057;59.402;17.866;2024-03-02T10:57:52;101530.88;;;7.35;76.45
19795;BME280;10057;59.402;17.866;2024-03-02T11:00:25;101539.69;;;7.36;75.73
19795;BME280;10057;59.402;17.866;2024-03-02T11:02:58;101527.38;;;7.35;75.89
19795;BME280;10057;59.402;17.866;2024-03-02T11:05:33;101529.16;;;7.31;75.87
19795;BME280;10057;59.402;17.866;2024-03-02T11:08:02;101515.09;;;7.31;76.08
19795;BME280;10057;59.402;17.866;2024-03-02T11:10:41;101517.69;;;7.35;76.18
19795;BME280;10057;59.402;17.866;2024-03-02T11:13:12;101509.75;;;7.37;76.20
19795;BME280;10057;59.402;17.866;2024-03-02T11:15:43;101517.63;;;7.40;75.80
19795;BME280;10057;59.402;17.866;2024-03-02T11:18:11;101532.56;;;7.41;75.99
19795;BME280;10057;59.402;17.866;2024-03-02T11:20:40;101526.41;;;7.41;76.04
19795;BME280;10057;59.402;17.866;2024-03-02T11:23:09;101529.06;;;7.42;75.68
19795;BME280;10057;59.402;17.866;2024-03-02T11:25:36;101537.84;;;7.43;76.07
19795;BME280;10057;59.402;17.866;2024-03-02T11:28:06;101528.22;;;7.39;75.63
19795;BME280;10057;59.402;17.866;2024-03-02T11:33:08;101515.88;;;7.39;75.70
19795;BME280;10057;59.402;17.866;2024-03-02T11:35:38;101527.28;;;7.41;75.66
19795;BME280;10057;59.402;17.866;2024-03-02T11:38:09;101529.09;;;7.39;75.62
19795;BME280;10057;59.402;17.866;2024-03-02T11:40:36;101512.44;;;7.32;75.34
19795;BME280;10057;59.402;17.866;2024-03-02T11:43:04;101527.34;;;7.36;75.62
19795;BME280;10057;59.402;17.866;2024-03-02T11:45:31;101495.81;;;7.26;75.53
19795;BME280;10057;59.402;17.866;2024-03-02T11:48:00;101515.03;;;7.37;75.70
19795;BME280;10057;59.402;17.866;2024-03-02T11:50:31;101520.22;;;7.42;75.64
19795;BME280;10057;59.402;17.866;2024-03-02T11:53:00;101522.03;;;7.38;75.47
19795;BME280;10057;59.402;17.866;2024-03-02T11:55:26;101525.50;;;7.42;75.40
19795;BME280;10057;59.402;17.866;2024-03-02T11:57:53;101529.00;;;7.45;75.58
19795;BME280;10057;59.402;17.866;2024-03-02T12:00:20;101523.78;;;7.42;75.34
19795;BME280;10057;59.402;17.866;2024-03-02T12:03:04;101523.78;;;7.42;75.23
19795;BME280;10057;59.402;17.866;2024-03-02T12:05:32;101524.66;;;7.41;75.39
19795;BME280;10057;59.402;17.866;2024-03-02T12:08:03;101531.69;;;7.42;75.48
19795;BME280;10057;59.402;17.866;2024-03-02T12:10:31;101533.41;;;7.45;75.35
19795;BME280;10057;59.402;17.866;2024-03-02T12:12:59;101542.19;;;7.45;75.31
19795;BME280;10057;59.402;17.866;2024-03-02T12:15:30;101537.81;;;7.44;75.20
19795;BME280;10057;59.402;17.866;2024-03-02T12:17:59;101541.34;;;7.43;75.32
19795;BME280;10057;59.402;17.866;2024-03-02T12:20:30;101539.66;;;7.39;75.42
19795;BME280;10057;59.402;17.866;2024-03-02T12:23:04;101541.38;;;7.40;75.22
19795;BME280;10057;59.402;17.866;2024-03-02T12:25:32;101544.91;;;7.42;74.88
19795;BME280;10057;59.402;17.866;2024-03-02T12:28:02;101542.25;;;7.42;75.13
19795;BME280;10057;59.402;17.866;2024-03-02T12:30:30;101543.13;;;7.41;75.10
19795;BME280;10057;59.402;17.866;2024-03-02T12:32:58;101538.72;;;7.42;74.91
19795;BME280;10057;59.402;17.866;2024-03-02T12:35:25;101535.22;;;7.43;75.13
19795;BME280;10057;59.402;17.866;2024-03-02T12:37:52;101526.41;;;7.41;74.89
19795;BME280;10057;59.402;17.866;2024-03-02T12:40:20;101534.34;;;7.42;74.96
19795;BME280;10057;59.402;17.866;2024-03-02T12:42:50;101542.25;;;7.42;74.92
19795;BME280;10057;59.402;17.866;2024-03-02T12:45:17;101535.25;;;7.38;74.69
19795;BME280;10057;59.402;17.866;2024-03-02T12:47:51;101534.34;;;7.42;75.12
19795;BME280;10057;59.402;17.866;2024-03-02T12:50:18;101528.19;;;7.40;74.86
19795;BME280;10057;59.402;17.866;2024-03-02T12:52:52;101531.66;;;7.44;74.91
19795;BME280;10057;59.402;17.866;2024-03-02T12:55:20;101533.41;;;7.45;75.01
19795;BME280;10057;59.402;17.866;2024-03-02T12:57:50;101537.81;;;7.44;74.62
19795;BME280;10057;59.402;17.866;2024-03-02T13:00:18;101538.72;;;7.42;74.73
19795;BME280;10057;59.402;17.866;2024-03-02T13:02:46;101534.38;;;7.39;74.72
19795;BME280;10057;59.402;17.866;2024-03-02T13:05:12;101530.84;;;7.37;74.75
19795;BME280;10057;59.402;17.866;2024-03-02T13:07:40;101529.13;;;7.36;74.80